San Diego, CA

23:10 PDT le 24 juillet 2016 (GMT -0700)
Columbia District | | Change Station

Alt. 23 ft 32.72 °N, 117.17 °W | Updated 6 seconds ago

Scattered Clouds
Nuages épars
73.6 ° F
Paraît 73.6 ° F
N
0.0
Vent Variable Vent de SSO
Gusts 0.0 mph

Aujourd'hui
Haut(e) -- | Bas -- ° F
--% Risque de précip.
Hier
Haut(e) -- | Bas -- ° F
Precip. -- pouce
Pression 29.93 pouce
Visibilité 9.0 Miles terrestres
Nuages Peu 15000 ft
Nuages épars 20000 ft
Point de rosée 73 ° F
Humidité 97%
Précipitations 0.00 pouce
Profondeur de la couche neigeuse Non disponible.
5:57 AM 7:52 PM
Lune gibbeuse décroissante, 69% visible
METAR KSAN 250551Z 20004KT 9SM FEW150 SCT200 21/19 A2993 RMK AO2 SLP134 T02110189 10244 20211 51007
Pression 29.93 pouce
Visibilité 9.0 Miles terrestres
Nuages Peu 15000 ft
Nuages épars 20000 ft
Point de rosée 73 ° F
Humidité 97%
Précipitations 0.00 pouce
Profondeur de la couche neigeuse Non disponible.
5:57 AM 7:52 PM
Lune gibbeuse décroissante, 69% visible
METAR KSAN 250551Z 20004KT 9SM FEW150 SCT200 21/19 A2993 RMK AO2 SLP134 T02110189 10244 20211 51007

10-Day Weather Forecast

Almanac

Astronomie

Jul. 24, 2016 Lever Coucher
Temps réel
Crépuscule civil
Crépuscule nautique
Crépuscule astronomique
Lune
Durée de lumière visible
Longueur du jour
Tomorrow will be .
, % of the Moon is Illuminated

Extrêmes aujourd'hui

State Highs State Lows

Community

WunderPhotos

Upload Photos

1,927,276 Photos téléchargées !

WunderBlog® & News

Nearby

Qualité de l'air

  Qualité de l'air Indice de la qualité de l'air Polluant
Not available.

Épaisseur de neige

Station Depth Altitude

Activité sismique

Ville Distance Mag. Time & Date
Minimum magnitude displayed is 2.5.

Températures des eaux côtières

Lieu Température

Stations

Stations météo à proximité

Emplacement de la station Température Refroidissement éolien Point de rosée Humidité Vent Precip. Alt. Mise à jour Type
                   

Watches & Warnings

There are currently no watches in effect.